createdAt,value
2023-05-05T00:00:40.040Z,12.5
2023-05-05T00:01:40.035Z,12.5
2023-05-05T00:02:40.092Z,12.5
2023-05-05T00:03:40.082Z,12.5
2023-05-05T00:04:40.032Z,12.5
2023-05-05T00:05:40.026Z,12.5
2023-05-05T00:06:40.025Z,12.4
2023-05-05T00:07:40.035Z,12.4
2023-05-05T00:08:40.025Z,12.4
2023-05-05T00:09:40.027Z,12.3
2023-05-05T00:10:40.034Z,12.4
2023-05-05T00:11:40.028Z,12.3
2023-05-05T00:12:40.045Z,12.3
2023-05-05T00:13:40.030Z,12.3
2023-05-05T00:14:41.276Z,12.3
2023-05-05T00:15:44.365Z,12.3
2023-05-05T00:16:47.327Z,12.3
2023-05-05T00:17:40.041Z,12.3
2023-05-05T00:18:40.212Z,12.2
2023-05-05T00:19:40.043Z,12.2
2023-05-05T00:20:40.039Z,12.2
2023-05-05T00:21:40.025Z,12.1
2023-05-05T00:22:40.034Z,12.1
2023-05-05T00:23:40.035Z,12.1
2023-05-05T00:24:40.048Z,12.1
2023-05-05T00:25:40.028Z,12.1
2023-05-05T00:26:40.032Z,12
2023-05-05T00:27:40.993Z,12
2023-05-05T00:28:40.042Z,12
2023-05-05T00:29:40.042Z,12
2023-05-05T00:30:40.036Z,12
2023-05-05T00:31:40.109Z,11.9
2023-05-05T00:32:40.048Z,11.9
2023-05-05T00:33:40.027Z,11.9
2023-05-05T00:34:40.022Z,11.9
2023-05-05T00:35:41.355Z,11.9
2023-05-05T00:36:44.376Z,11.9
2023-05-05T00:37:47.307Z,11.9
2023-05-05T00:38:40.027Z,11.9
2023-05-05T00:39:40.170Z,11.9
2023-05-05T00:40:40.044Z,11.8
2023-05-05T00:41:40.044Z,11.8
2023-05-05T00:42:40.039Z,11.8
2023-05-05T00:43:40.038Z,11.8
2023-05-05T00:44:40.048Z,11.8
2023-05-05T00:45:40.239Z,11.8
2023-05-05T00:47:40.103Z,11.8
2023-05-05T00:48:40.134Z,11.8
2023-05-05T00:49:40.215Z,11.9
2023-05-05T00:50:40.081Z,11.9
2023-05-05T00:51:40.100Z,11.9
2023-05-05T00:52:40.125Z,11.9
2023-05-05T00:53:40.184Z,11.9
2023-05-05T00:54:40.192Z,11.9
2023-05-05T00:55:40.091Z,11.9
2023-05-05T00:56:41.430Z,11.9
2023-05-05T00:57:44.578Z,11.9
2023-05-05T00:58:47.395Z,11.9
2023-05-05T00:59:40.053Z,11.9
2023-05-05T01:00:40.042Z,11.9
2023-05-05T01:01:40.052Z,11.9
2023-05-05T01:02:40.112Z,11.9
2023-05-05T01:03:40.172Z,12
2023-05-05T01:04:40.032Z,12
2023-05-05T01:05:40.051Z,12
2023-05-05T01:06:40.031Z,12
2023-05-05T01:07:40.040Z,12
2023-05-05T01:08:40.056Z,12.1
2023-05-05T01:09:40.024Z,12.1
2023-05-05T01:10:40.032Z,12.1
2023-05-05T01:11:40.046Z,12.1
2023-05-05T01:12:40.035Z,12.1
2023-05-05T01:13:40.051Z,12.1
2023-05-05T01:14:40.036Z,12.1
2023-05-05T01:15:40.047Z,12.1
2023-05-05T01:16:40.098Z,12.1
2023-05-05T01:17:40.050Z,12.2
2023-05-05T01:18:42.055Z,12.2
2023-05-05T01:19:44.906Z,12.1
2023-05-05T01:20:40.033Z,12.1
2023-05-05T01:21:40.034Z,12.1
2023-05-05T01:22:40.027Z,12.1
2023-05-05T01:23:40.052Z,12.1
2023-05-05T01:24:40.040Z,12.1
2023-05-05T01:25:40.040Z,12.1
2023-05-05T01:26:40.031Z,12.1
2023-05-05T01:27:40.031Z,12
2023-05-05T01:28:40.054Z,12
2023-05-05T01:29:40.032Z,12
2023-05-05T01:30:40.050Z,12
2023-05-05T01:31:40.054Z,12
2023-05-05T01:32:40.048Z,11.9
2023-05-05T01:33:40.035Z,11.9
2023-05-05T01:34:40.036Z,11.9
2023-05-05T01:35:40.040Z,11.9
2023-05-05T01:36:40.031Z,11.8
2023-05-05T01:37:40.038Z,11.8
2023-05-05T01:38:40.031Z,11.8
2023-05-05T01:39:42.028Z,11.8
2023-05-05T01:40:45.079Z,11.8
2023-05-05T01:41:40.027Z,11.8
2023-05-05T01:42:40.027Z,11.7
2023-05-05T01:43:40.029Z,11.7
2023-05-05T01:44:40.036Z,11.7
2023-05-05T01:45:40.063Z,11.7
2023-05-05T01:46:40.027Z,11.7
2023-05-05T01:47:40.036Z,11.7
2023-05-05T01:49:40.045Z,11.7
2023-05-05T01:50:40.049Z,11.7
2023-05-05T01:51:40.062Z,11.7
2023-05-05T01:52:40.038Z,11.7
2023-05-05T01:53:40.030Z,11.6
2023-05-05T01:54:40.032Z,11.6
2023-05-05T01:55:40.045Z,11.6
2023-05-05T01:56:40.069Z,11.6
2023-05-05T01:57:40.032Z,11.6
2023-05-05T01:58:40.026Z,11.5
2023-05-05T01:59:40.029Z,11.5
2023-05-05T02:00:41.755Z,11.5
2023-05-05T02:01:45.093Z,11.5
2023-05-05T02:02:40.053Z,11.5
2023-05-05T02:03:40.037Z,11.4
2023-05-05T02:04:40.022Z,11.4
2023-05-05T02:05:40.044Z,11.4
2023-05-05T02:06:40.050Z,11.4
2023-05-05T02:07:40.032Z,11.3
2023-05-05T02:08:40.022Z,11.3
2023-05-05T02:09:40.045Z,11.3
2023-05-05T02:10:40.042Z,11.3
2023-05-05T02:11:40.032Z,11.2
2023-05-05T02:12:40.035Z,11.2
2023-05-05T02:13:40.063Z,11.2
2023-05-05T02:14:40.025Z,11.2
2023-05-05T02:15:40.037Z,11.2
2023-05-05T02:16:40.027Z,11.2
2023-05-05T02:17:40.118Z,11.2
2023-05-05T02:18:40.054Z,11.3
2023-05-05T02:19:40.047Z,11.2
2023-05-05T02:20:40.045Z,11.3
2023-05-05T02:21:42.275Z,11.3
2023-05-05T02:22:45.194Z,11.3
2023-05-05T02:23:40.032Z,11.3
2023-05-05T02:24:40.030Z,11.3
2023-05-05T02:25:40.041Z,11.3
2023-05-05T02:26:40.067Z,11.3
2023-05-05T02:27:40.024Z,11.3
2023-05-05T02:28:40.072Z,11.4
2023-05-05T02:29:40.035Z,11.4
2023-05-05T02:30:40.039Z,11.4
2023-05-05T02:31:40.064Z,11.4
2023-05-05T02:32:40.046Z,11.4
2023-05-05T02:33:40.030Z,11.4
2023-05-05T02:34:40.039Z,11.4
2023-05-05T02:35:40.034Z,11.4
2023-05-05T02:36:40.059Z,11.4
2023-05-05T02:37:40.043Z,11.4
2023-05-05T02:38:40.041Z,11.4
2023-05-05T02:39:40.036Z,11.4
2023-05-05T02:40:40.041Z,11.4
2023-05-05T02:41:40.052Z,11.4
2023-05-05T02:42:42.332Z,11.4
2023-05-05T02:43:45.198Z,11.3
2023-05-05T02:44:40.032Z,11.3
2023-05-05T02:45:40.041Z,11.3
2023-05-05T02:46:40.217Z,11.2
2023-05-05T02:47:40.231Z,11.2
2023-05-05T02:48:40.032Z,11.2
2023-05-05T02:49:40.166Z,11.2
2023-05-05T02:50:40.039Z,11.1
2023-05-05T02:51:40.032Z,11.1
2023-05-05T02:52:40.043Z,11.1
2023-05-05T02:53:40.035Z,11.1
2023-05-05T02:54:40.034Z,11.1
2023-05-05T02:55:40.024Z,11.1
2023-05-05T02:56:40.026Z,11
2023-05-05T02:57:40.040Z,11
2023-05-05T02:58:40.050Z,11
2023-05-05T02:59:40.218Z,11
2023-05-05T03:00:40.033Z,11
2023-05-05T03:01:40.063Z,11
2023-05-05T03:02:40.100Z,11
2023-05-05T03:03:42.506Z,11
2023-05-05T03:04:45.282Z,11
2023-05-05T03:05:40.031Z,10.9
2023-05-05T03:06:40.052Z,10.9
2023-05-05T03:07:40.036Z,10.9
2023-05-05T03:08:40.033Z,10.9
2023-05-05T03:09:40.041Z,10.9
2023-05-05T03:10:40.209Z,10.9
2023-05-05T03:11:40.054Z,10.9
2023-05-05T03:12:40.046Z,10.9
2023-05-05T03:13:40.032Z,10.9
2023-05-05T03:14:40.036Z,10.9
2023-05-05T03:15:40.024Z,11
2023-05-05T03:16:40.128Z,11
2023-05-05T03:17:40.062Z,11
2023-05-05T03:18:40.041Z,11
2023-05-05T03:19:40.037Z,11
2023-05-05T03:20:40.061Z,11
2023-05-05T03:21:40.065Z,11.1
2023-05-05T03:22:40.038Z,11.1
2023-05-05T03:23:40.027Z,11.1
2023-05-05T03:24:42.524Z,11.1
2023-05-05T03:25:45.449Z,11.1
2023-05-05T03:26:40.033Z,11.1
2023-05-05T03:27:40.053Z,11.2
2023-05-05T03:28:40.023Z,11.2
2023-05-05T03:29:40.037Z,11.2
2023-05-05T03:30:40.032Z,11.2
2023-05-05T03:31:40.195Z,11.2
2023-05-05T03:32:40.044Z,11.3
2023-05-05T03:33:40.046Z,11.3
2023-05-05T03:34:40.049Z,11.3
2023-05-05T03:35:40.032Z,11.3
2023-05-05T03:36:40.028Z,11.3
2023-05-05T03:37:40.035Z,11.4
2023-05-05T03:38:40.045Z,11.4
2023-05-05T03:39:40.040Z,11.4
2023-05-05T03:40:44.031Z,11.4
2023-05-05T03:41:40.094Z,11.5
2023-05-05T03:42:40.027Z,11.4
2023-05-05T03:43:40.034Z,11.5
2023-05-05T03:44:40.034Z,11.5
2023-05-05T03:45:42.145Z,11.5
2023-05-05T03:46:45.434Z,11.5
2023-05-05T03:47:40.055Z,11.6
2023-05-05T03:48:40.031Z,11.6
2023-05-05T03:49:40.031Z,11.6
2023-05-05T03:50:40.031Z,11.7
2023-05-05T03:51:40.028Z,11.7
2023-05-05T03:52:40.047Z,11.7
2023-05-05T03:53:40.034Z,11.7
2023-05-05T03:54:40.038Z,11.7
2023-05-05T03:55:40.031Z,11.7
2023-05-05T03:56:40.031Z,11.8
2023-05-05T03:57:40.055Z,11.8
2023-05-05T03:58:40.035Z,11.8
2023-05-05T03:59:40.059Z,11.9
2023-05-05T04:00:40.027Z,11.9
2023-05-05T04:01:40.037Z,12
2023-05-05T04:02:40.092Z,12
2023-05-05T04:03:40.100Z,12
2023-05-05T04:04:40.031Z,12.1
2023-05-05T04:05:40.038Z,12.2
2023-05-05T04:06:41.071Z,12.2
2023-05-05T04:07:43.980Z,12.2
2023-05-05T04:08:40.032Z,12.3
2023-05-05T04:09:40.029Z,12.3
2023-05-05T04:10:40.035Z,12.4
2023-05-05T04:11:40.034Z,12.4
2023-05-05T04:12:40.101Z,12.5
2023-05-05T04:13:40.030Z,12.5
2023-05-05T04:14:40.037Z,12.6
2023-05-05T04:15:40.058Z,12.6
2023-05-05T04:16:40.049Z,12.6
2023-05-05T04:17:40.085Z,12.6
2023-05-05T04:18:40.038Z,12.7
2023-05-05T04:19:40.034Z,12.7
2023-05-05T04:20:40.039Z,12.7
2023-05-05T04:21:40.076Z,12.7
2023-05-05T04:22:40.030Z,12.8
2023-05-05T04:23:40.044Z,12.8
2023-05-05T04:24:40.115Z,12.8
2023-05-05T04:25:40.045Z,12.8
2023-05-05T04:26:40.034Z,12.9
2023-05-05T04:27:40.071Z,12.9
2023-05-05T04:28:42.895Z,12.9
2023-05-05T04:29:45.951Z,13
2023-05-05T04:31:40.068Z,13.1
2023-05-05T04:32:40.050Z,13.1
2023-05-05T04:33:40.041Z,13.1
2023-05-05T04:34:40.034Z,13.1
2023-05-05T04:35:40.025Z,13.1
2023-05-05T04:36:40.034Z,13.2
2023-05-05T04:37:40.029Z,13.2
2023-05-05T04:38:40.070Z,13.3
2023-05-05T04:39:40.036Z,13.3
2023-05-05T04:40:40.033Z,13.4
2023-05-05T04:41:40.042Z,13.4
2023-05-05T04:42:40.050Z,13.4
2023-05-05T04:43:40.036Z,13.5
2023-05-05T04:44:40.046Z,13.5
2023-05-05T04:45:40.057Z,13.6
2023-05-05T04:46:40.042Z,13.6
2023-05-05T04:47:40.099Z,13.6
2023-05-05T04:48:40.153Z,13.6
2023-05-05T04:49:42.536Z,13.6
2023-05-05T04:50:45.928Z,13.7
2023-05-05T04:51:40.036Z,13.7
2023-05-05T04:52:40.042Z,13.8
2023-05-05T04:53:40.047Z,13.8
2023-05-05T04:54:40.066Z,13.9
2023-05-05T04:55:40.033Z,13.9
2023-05-05T04:56:40.035Z,14
2023-05-05T04:57:40.036Z,14
2023-05-05T04:58:40.043Z,14
2023-05-05T04:59:40.048Z,14.1
2023-05-05T05:00:40.040Z,14.2
2023-05-05T05:01:40.061Z,14.2
2023-05-05T05:02:40.175Z,14.3
2023-05-05T05:03:40.138Z,14.3
2023-05-05T05:04:40.063Z,14.4
2023-05-05T05:05:40.027Z,14.5
2023-05-05T05:06:40.029Z,14.6
2023-05-05T05:07:40.040Z,14.7
2023-05-05T05:08:40.034Z,14.8
2023-05-05T05:09:40.430Z,14.9
2023-05-05T05:10:42.605Z,14.9
2023-05-05T05:11:46.040Z,15
2023-05-05T05:12:40.050Z,15.1
2023-05-05T05:13:40.033Z,15.2
2023-05-05T05:14:40.036Z,15.3
2023-05-05T05:15:40.030Z,15.4
2023-05-05T05:16:40.054Z,15.5
2023-05-05T05:17:40.064Z,15.5
2023-05-05T05:18:40.025Z,15.6
2023-05-05T05:19:40.035Z,15.7
2023-05-05T05:20:40.036Z,15.7
2023-05-05T05:21:40.029Z,15.8
2023-05-05T05:22:40.033Z,15.8
2023-05-05T05:23:40.046Z,15.8
2023-05-05T05:24:40.034Z,15.9
2023-05-05T05:25:40.055Z,15.9
2023-05-05T05:26:40.034Z,15.9
2023-05-05T05:27:40.032Z,15.9
2023-05-05T05:28:40.032Z,15.9
2023-05-05T05:29:40.047Z,15.9
2023-05-05T05:30:40.279Z,15.9
2023-05-05T05:31:42.709Z,15.9
2023-05-05T05:32:46.210Z,16
2023-05-05T05:33:40.035Z,16
2023-05-05T05:34:40.052Z,16
2023-05-05T05:35:40.039Z,16
2023-05-05T05:36:40.036Z,16
2023-05-05T05:37:40.043Z,16
2023-05-05T05:38:40.055Z,16
2023-05-05T05:39:41.981Z,16
2023-05-05T05:40:40.042Z,16
2023-05-05T05:41:40.036Z,16.1
2023-05-05T05:42:40.056Z,16.1
2023-05-05T05:43:40.037Z,16.1
2023-05-05T05:44:40.044Z,16.1
2023-05-05T05:45:40.068Z,16.2
2023-05-05T05:46:40.119Z,16.2
2023-05-05T05:47:40.083Z,16.2
2023-05-05T05:48:40.040Z,16.3
2023-05-05T05:49:40.028Z,16.3
2023-05-05T05:50:40.037Z,16.3
2023-05-05T05:51:40.371Z,16.4
2023-05-05T05:52:42.832Z,16.4
2023-05-05T05:53:46.227Z,16.4
2023-05-05T05:54:40.031Z,16.5
2023-05-05T05:55:40.031Z,16.5
2023-05-05T05:56:40.033Z,16.6
2023-05-05T05:57:40.027Z,16.6
2023-05-05T05:58:40.038Z,16.7
2023-05-05T05:59:40.034Z,16.7
2023-05-05T06:00:40.047Z,16.7
2023-05-05T06:01:40.029Z,16.8
2023-05-05T06:02:40.221Z,16.8
2023-05-05T06:03:40.092Z,16.8
2023-05-05T06:04:40.097Z,16.8
2023-05-05T06:05:40.061Z,16.8
2023-05-05T06:06:40.030Z,16.8
2023-05-05T06:07:40.038Z,16.8
2023-05-05T06:08:40.027Z,16.9
2023-05-05T06:09:40.052Z,16.9
2023-05-05T06:10:40.034Z,16.9
2023-05-05T06:11:40.035Z,17
2023-05-05T06:12:40.483Z,17
2023-05-05T06:13:43.389Z,17
2023-05-05T06:14:46.314Z,17.2
2023-05-05T06:15:40.034Z,17.2
2023-05-05T06:16:40.025Z,17.3
2023-05-05T06:17:40.101Z,17.3
2023-05-05T06:18:40.022Z,17.4
2023-05-05T06:19:40.026Z,17.5
2023-05-05T06:20:40.031Z,17.5
2023-05-05T06:21:40.030Z,17.6
2023-05-05T06:22:40.278Z,17.7
2023-05-05T06:23:40.220Z,17.8
2023-05-05T06:24:40.039Z,17.8
2023-05-05T06:25:40.032Z,17.9
2023-05-05T06:26:40.033Z,18
2023-05-05T06:27:40.029Z,18.1
2023-05-05T06:28:40.045Z,18.2
2023-05-05T06:29:40.031Z,18.2
2023-05-05T06:30:40.037Z,18.3
2023-05-05T06:31:40.096Z,18.4
2023-05-05T06:32:40.050Z,18.4
2023-05-05T06:33:40.538Z,18.4
2023-05-05T06:34:42.967Z,18.5
2023-05-05T06:35:46.358Z,18.5
2023-05-05T06:36:40.062Z,18.7
2023-05-05T06:37:40.028Z,18.7
2023-05-05T06:38:40.032Z,18.8
2023-05-05T06:39:40.025Z,18.8
2023-05-05T06:40:40.037Z,18.8
2023-05-05T06:41:40.032Z,18.8
2023-05-05T06:42:40.047Z,18.8
2023-05-05T06:43:40.037Z,18.8
2023-05-05T06:44:40.175Z,18.9
2023-05-05T06:45:40.278Z,18.9
2023-05-05T06:46:40.043Z,18.9
2023-05-05T06:47:40.043Z,18.9
2023-05-05T06:48:40.040Z,18.9
2023-05-05T06:49:40.031Z,18.9
2023-05-05T06:50:40.057Z,18.9
2023-05-05T06:51:41.524Z,18.9
2023-05-05T06:52:40.030Z,18.9
2023-05-05T06:53:40.031Z,18.9
2023-05-05T06:54:40.679Z,18.9
2023-05-05T06:55:43.449Z,18.9
2023-05-05T06:56:46.470Z,18.8
2023-05-05T06:58:40.036Z,18.8
2023-05-05T06:59:40.048Z,18.8
2023-05-05T07:00:40.077Z,18.8
2023-05-05T07:01:40.034Z,18.8
2023-05-05T07:02:40.147Z,18.8
2023-05-05T07:03:40.116Z,18.8
2023-05-05T07:04:40.050Z,18.7
2023-05-05T07:05:40.032Z,18.7
2023-05-05T07:06:40.032Z,18.5
2023-05-05T07:07:40.031Z,18.5
2023-05-05T07:08:40.053Z,18.5
2023-05-05T07:09:40.030Z,18.5
2023-05-05T07:10:40.025Z,18.5
2023-05-05T07:11:40.039Z,18.5
2023-05-05T07:12:40.086Z,18.4
2023-05-05T07:13:40.077Z,18.4
2023-05-05T07:14:40.025Z,18.5
2023-05-05T07:15:40.030Z,18.5
2023-05-05T07:16:40.946Z,18.5
2023-05-05T07:17:44.007Z,18.5
2023-05-05T07:18:46.947Z,18.5
2023-05-05T07:19:40.030Z,18.4
2023-05-05T07:20:40.044Z,18.5
2023-05-05T07:21:40.072Z,18.5
2023-05-05T07:22:40.038Z,18.5
2023-05-05T07:23:40.046Z,18.5
2023-05-05T07:24:40.040Z,18.5
2023-05-05T07:25:40.042Z,18.7
2023-05-05T07:26:40.030Z,18.7
2023-05-05T07:27:40.029Z,18.7
2023-05-05T07:28:40.041Z,18.7
2023-05-05T07:29:40.037Z,18.7
2023-05-05T07:30:40.040Z,18.7
2023-05-05T07:31:40.036Z,18.7
2023-05-05T07:32:40.064Z,18.7
2023-05-05T07:33:40.044Z,18.7
2023-05-05T07:34:40.032Z,18.8
2023-05-05T07:35:40.053Z,18.8
2023-05-05T07:36:40.061Z,18.8
2023-05-05T07:37:40.936Z,18.8
2023-05-05T07:38:44.097Z,18.8
2023-05-05T07:39:47.089Z,18.9
2023-05-05T07:40:40.025Z,18.9
2023-05-05T07:41:40.036Z,18.9
2023-05-05T07:42:40.034Z,18.9
2023-05-05T07:43:40.527Z,18.9
2023-05-05T07:44:40.038Z,19
2023-05-05T07:45:40.089Z,19
2023-05-05T07:46:40.032Z,19
2023-05-05T07:47:40.039Z,19
2023-05-05T07:48:40.030Z,19
2023-05-05T07:49:40.039Z,19
2023-05-05T07:50:40.024Z,19
2023-05-05T07:51:40.028Z,19
2023-05-05T07:53:40.019Z,19
2023-05-05T07:54:40.031Z,19
2023-05-05T07:55:40.038Z,19
2023-05-05T07:56:40.035Z,19
2023-05-05T07:57:40.068Z,19
2023-05-05T07:58:41.265Z,19
2023-05-05T07:59:44.131Z,19.1
2023-05-05T08:00:47.188Z,19.1
2023-05-05T08:01:40.049Z,19.1
2023-05-05T08:02:40.176Z,19.2
2023-05-05T08:03:40.124Z,19.2
2023-05-05T08:04:40.061Z,19.2
2023-05-05T08:05:40.054Z,19.3
2023-05-05T08:06:40.041Z,19.3
2023-05-05T08:08:40.023Z,19.5
2023-05-05T08:09:40.027Z,19.5
2023-05-05T08:10:40.042Z,19.5
2023-05-05T08:11:40.031Z,19.7
2023-05-05T08:12:40.148Z,19.8
2023-05-05T08:13:40.035Z,19.8
2023-05-05T08:14:40.037Z,19.8
2023-05-05T08:15:40.056Z,19.9
2023-05-05T08:16:40.041Z,20
2023-05-05T08:17:40.038Z,20
2023-05-05T08:18:40.030Z,20
2023-05-05T08:19:41.135Z,20
2023-05-05T08:20:44.146Z,20
2023-05-05T08:21:46.591Z,20
2023-05-05T08:22:40.032Z,20
2023-05-05T08:23:40.245Z,20
2023-05-05T08:24:40.031Z,20
2023-05-05T08:25:40.065Z,20
2023-05-05T08:26:40.045Z,20
2023-05-05T08:27:40.034Z,20.1
2023-05-05T08:28:40.039Z,20.1
2023-05-05T08:29:40.042Z,20.1
2023-05-05T08:30:40.042Z,20.1
2023-05-05T08:31:40.062Z,20.1
2023-05-05T08:32:40.049Z,20.1
2023-05-05T08:33:40.040Z,20.1
2023-05-05T08:34:40.030Z,20.2
2023-05-05T08:35:40.049Z,20.2
2023-05-05T08:36:40.043Z,20.2
2023-05-05T08:37:40.036Z,20.2
2023-05-05T08:38:40.041Z,20.2
2023-05-05T08:39:40.034Z,20.2
2023-05-05T08:40:41.249Z,20.2
2023-05-05T08:41:44.307Z,20.1
2023-05-05T08:42:47.344Z,20.2
2023-05-05T08:43:40.050Z,20.1
2023-05-05T08:44:40.185Z,20.2
2023-05-05T08:45:40.043Z,20.2
2023-05-05T08:46:40.058Z,20.2
2023-05-05T08:47:40.160Z,20.2
2023-05-05T08:48:40.036Z,20.3
2023-05-05T08:49:40.032Z,20.3
2023-05-05T08:50:40.031Z,20.3
2023-05-05T08:51:40.079Z,20.3
2023-05-05T08:52:40.071Z,20.3
2023-05-05T08:53:40.053Z,20.3
2023-05-05T08:54:40.035Z,20.3
2023-05-05T08:55:40.046Z,20.3
2023-05-05T08:56:40.058Z,20.3
2023-05-05T08:57:40.038Z,20.3
2023-05-05T08:58:40.027Z,20.3
2023-05-05T08:59:40.288Z,20.3
2023-05-05T09:00:40.322Z,20.3
2023-05-05T09:01:41.301Z,20.3
2023-05-05T09:02:44.342Z,20.5
2023-05-05T09:03:47.380Z,20.5
2023-05-05T09:04:40.028Z,20.5
2023-05-05T09:05:40.022Z,20.6
2023-05-05T09:06:40.068Z,20.6
2023-05-05T09:07:40.029Z,20.6
2023-05-05T09:08:40.068Z,20.7
2023-05-05T09:09:40.055Z,20.7
2023-05-05T09:10:40.054Z,20.8
2023-05-05T09:11:40.037Z,20.9
2023-05-05T09:12:40.054Z,20.9
2023-05-05T09:13:40.050Z,21
2023-05-05T09:14:40.058Z,21
2023-05-05T09:15:40.033Z,21.2
2023-05-05T09:16:40.132Z,21.2
2023-05-05T09:17:40.073Z,21.2
2023-05-05T09:18:40.032Z,21.2
2023-05-05T09:19:40.042Z,21.2
2023-05-05T09:20:40.030Z,21.2
2023-05-05T09:21:40.052Z,21
2023-05-05T09:22:41.444Z,21
2023-05-05T09:23:44.432Z,21
2023-05-05T09:24:47.511Z,20.9
2023-05-05T09:26:40.044Z,20.8
2023-05-05T09:27:40.036Z,20.8
2023-05-05T09:28:40.036Z,20.8
2023-05-05T09:29:40.061Z,20.8
2023-05-05T09:30:40.039Z,20.8
2023-05-05T09:31:40.035Z,20.8
2023-05-05T09:32:40.091Z,20.8
2023-05-05T09:33:40.045Z,20.8
2023-05-05T09:34:40.048Z,20.8
2023-05-05T09:35:40.039Z,20.8
2023-05-05T09:36:40.115Z,20.9
2023-05-05T09:37:40.034Z,20.9
2023-05-05T09:38:40.048Z,20.9
2023-05-05T09:39:40.202Z,20.9
2023-05-05T09:40:40.046Z,20.9
2023-05-05T09:41:40.039Z,20.9
2023-05-05T09:42:40.051Z,20.9
2023-05-05T09:43:41.501Z,20.9
2023-05-05T09:44:44.548Z,20.9
2023-05-05T09:45:47.625Z,20.9
2023-05-05T09:46:40.118Z,20.8
2023-05-05T09:47:40.038Z,20.8
2023-05-05T09:48:40.033Z,20.8
2023-05-05T09:49:40.034Z,20.7
2023-05-05T09:50:40.043Z,20.7
2023-05-05T09:51:40.041Z,20.7
2023-05-05T09:52:40.027Z,20.7
2023-05-05T09:53:40.035Z,20.8
2023-05-05T09:54:40.033Z,20.8
2023-05-05T09:55:40.057Z,20.8
2023-05-05T09:56:40.050Z,20.9
2023-05-05T09:57:40.227Z,20.9
2023-05-05T09:58:40.075Z,21
2023-05-05T09:59:40.021Z,21
2023-05-05T10:00:40.039Z,21
2023-05-05T10:01:40.034Z,21
2023-05-05T10:02:40.052Z,21
2023-05-05T10:03:40.033Z,21
2023-05-05T10:04:41.672Z,21
2023-05-05T10:05:44.700Z,21
2023-05-05T10:06:47.834Z,21
2023-05-05T10:07:40.154Z,21
2023-05-05T10:08:40.124Z,20.9
2023-05-05T10:09:40.166Z,21
2023-05-05T10:10:40.212Z,21
2023-05-05T10:12:40.312Z,21
2023-05-05T10:13:40.262Z,21.2
2023-05-05T10:14:40.027Z,21.2
2023-05-05T10:15:40.052Z,21.3
2023-05-05T10:16:40.184Z,21.4
2023-05-05T10:17:42.551Z,21.4
2023-05-05T10:18:40.072Z,21.5
2023-05-05T10:19:40.025Z,21.5
2023-05-05T10:20:40.048Z,21.5
2023-05-05T10:21:41.900Z,21.5
2023-05-05T10:22:40.033Z,21.6
2023-05-05T10:23:40.024Z,21.6
2023-05-05T10:24:40.032Z,21.6
2023-05-05T10:25:40.049Z,21.6
2023-05-05T10:26:41.835Z,21.6
2023-05-05T10:27:44.840Z,21.6
2023-05-05T10:28:47.945Z,21.6
2023-05-05T10:29:40.032Z,21.8
2023-05-05T10:30:40.047Z,21.8
2023-05-05T10:31:40.039Z,21.8
2023-05-05T10:32:51.833Z,21.9
2023-05-05T10:33:40.098Z,22
2023-05-05T10:34:40.092Z,22
2023-05-05T10:35:40.055Z,22
2023-05-05T10:36:40.030Z,22
2023-05-05T10:37:40.036Z,22.1
2023-05-05T10:38:40.030Z,22.1
2023-05-05T10:39:40.037Z,22.1
2023-05-05T10:40:40.051Z,22.1
2023-05-05T10:41:40.040Z,22.1
2023-05-05T10:42:40.075Z,22.3
2023-05-05T10:43:40.084Z,22.1
2023-05-05T10:44:40.030Z,22.3
2023-05-05T10:45:40.115Z,22.3
2023-05-05T10:46:40.061Z,22.1
2023-05-05T10:47:41.887Z,22.1
2023-05-05T10:48:44.880Z,22.1
2023-05-05T10:49:40.029Z,22.1
2023-05-05T10:50:40.044Z,22.1
2023-05-05T10:51:41.127Z,22.1
2023-05-05T10:52:40.034Z,22.3
2023-05-05T10:53:40.039Z,22.3
2023-05-05T10:54:40.031Z,22.3
2023-05-05T10:55:40.062Z,22.3
2023-05-05T10:56:40.046Z,22.4
2023-05-05T10:57:40.043Z,22.4
2023-05-05T10:58:51.621Z,22.4
2023-05-05T10:59:40.039Z,22.4
2023-05-05T11:00:40.075Z,22.4
2023-05-05T11:01:40.058Z,22.4
2023-05-05T11:02:40.053Z,22.4
2023-05-05T11:03:40.050Z,22.4
2023-05-05T11:04:40.035Z,22.4
2023-05-05T11:05:40.033Z,22.4
2023-05-05T11:06:40.031Z,22.4
2023-05-05T11:07:40.029Z,22.4
2023-05-05T11:08:41.394Z,22.4
2023-05-05T11:09:44.346Z,22.4
2023-05-05T11:10:40.032Z,22.5
2023-05-05T11:11:40.031Z,22.4
2023-05-05T11:12:40.038Z,22.4
2023-05-05T11:13:40.051Z,22.4
2023-05-05T11:14:40.030Z,22.4
2023-05-05T11:15:40.034Z,22.5
2023-05-05T11:16:40.082Z,22.5
2023-05-05T11:17:40.061Z,22.5
2023-05-05T11:18:40.035Z,22.6
2023-05-05T11:19:40.048Z,22.6
2023-05-05T11:20:40.101Z,22.7
2023-05-05T11:21:40.029Z,22.7
2023-05-05T11:22:40.034Z,22.9
2023-05-05T11:23:40.062Z,22.9
2023-05-05T11:24:40.027Z,22.9
2023-05-05T11:25:40.058Z,22.9
2023-05-05T11:26:40.045Z,22.9
2023-05-05T11:27:40.026Z,22.9
2023-05-05T11:28:40.037Z,22.9
2023-05-05T11:29:41.574Z,22.9
2023-05-05T11:30:45.060Z,22.9
2023-05-05T11:31:40.072Z,22.9
2023-05-05T11:32:40.045Z,22.9
2023-05-05T11:33:40.023Z,22.9
2023-05-05T11:34:40.048Z,23
2023-05-05T11:35:40.031Z,23
2023-05-05T11:36:40.076Z,22.9
2023-05-05T11:37:40.041Z,22.9
2023-05-05T11:38:40.032Z,22.9
2023-05-05T11:39:40.031Z,22.9
2023-05-05T11:40:40.027Z,22.9
2023-05-05T11:41:40.046Z,22.9
2023-05-05T11:42:40.027Z,22.9
2023-05-05T11:43:40.076Z,23
2023-05-05T11:44:40.024Z,23
2023-05-05T11:45:40.026Z,22.9
2023-05-05T11:46:40.086Z,22.9
2023-05-05T11:47:40.070Z,23
2023-05-05T11:48:40.034Z,23
2023-05-05T11:49:40.038Z,23
2023-05-05T11:50:42.159Z,23
2023-05-05T11:51:45.181Z,23
2023-05-05T11:52:40.033Z,23.1
2023-05-05T11:53:40.035Z,23.1
2023-05-05T11:54:40.033Z,23.2
2023-05-05T11:55:40.035Z,23.2
2023-05-05T11:56:40.026Z,23.2
2023-05-05T11:57:40.037Z,23.2
2023-05-05T11:58:40.054Z,23.4
2023-05-05T11:59:40.024Z,23.4
2023-05-05T12:00:40.039Z,23.4
2023-05-05T12:01:40.074Z,23.5
2023-05-05T12:02:40.130Z,23.5
2023-05-05T12:03:40.149Z,23.6
2023-05-05T12:04:40.041Z,23.8
2023-05-05T12:05:40.031Z,23.9
2023-05-05T12:06:40.029Z,24
2023-05-05T12:07:40.031Z,24.1
2023-05-05T12:08:40.028Z,24.3
2023-05-05T12:09:40.048Z,24.4
2023-05-05T12:10:40.038Z,24.4
2023-05-05T12:11:41.738Z,24.4
2023-05-05T12:12:45.275Z,24.4
2023-05-05T12:13:40.035Z,24.5
2023-05-05T12:14:40.033Z,24.5
2023-05-05T12:15:40.034Z,24.7
2023-05-05T12:16:40.120Z,24.7
2023-05-05T12:17:40.114Z,24.7
2023-05-05T12:18:40.052Z,24.7
2023-05-05T12:19:40.032Z,24.7
2023-05-05T12:20:40.033Z,24.7
2023-05-05T12:21:40.054Z,24.7
2023-05-05T12:22:40.053Z,24.7
2023-05-05T12:23:40.033Z,24.7
2023-05-05T12:24:40.032Z,24.7
2023-05-05T12:25:40.025Z,24.7
2023-05-05T12:26:40.047Z,24.8
2023-05-05T12:27:40.047Z,24.8
2023-05-05T12:28:40.026Z,24.8
2023-05-05T12:29:40.033Z,24.8
2023-05-05T12:30:40.059Z,24.8
2023-05-05T12:31:40.076Z,24.8
2023-05-05T12:32:42.508Z,24.8
2023-05-05T12:33:45.503Z,24.8
2023-05-05T12:34:40.032Z,24.7
2023-05-05T12:35:40.032Z,24.7
2023-05-05T12:36:40.041Z,24.7
2023-05-05T12:37:40.042Z,24.7
2023-05-05T12:38:40.020Z,24.7
2023-05-05T12:39:40.146Z,24.5
2023-05-05T12:40:40.055Z,24.5
2023-05-05T12:41:40.036Z,24.5
2023-05-05T12:42:40.044Z,24.5
2023-05-05T12:43:40.025Z,24.5
2023-05-05T12:44:40.032Z,24.5
2023-05-05T12:45:40.068Z,24.4
2023-05-05T12:46:40.057Z,24.3
2023-05-05T12:47:40.031Z,24.1
2023-05-05T12:48:40.032Z,24
2023-05-05T12:49:40.029Z,24
2023-05-05T12:50:40.032Z,23.9
2023-05-05T12:51:40.034Z,23.8
2023-05-05T12:52:40.036Z,23.8
2023-05-05T12:53:42.570Z,23.8
2023-05-05T12:54:45.424Z,23.6
2023-05-05T12:55:40.092Z,23.5
2023-05-05T12:56:40.034Z,23.4
2023-05-05T12:57:40.047Z,23.2
2023-05-05T12:58:40.032Z,23.1
2023-05-05T12:59:40.032Z,23
2023-05-05T13:00:40.236Z,22.9
2023-05-05T13:01:40.068Z,22.7
2023-05-05T13:02:40.086Z,22.6
2023-05-05T13:03:40.046Z,22.5
2023-05-05T13:04:40.044Z,22.5
2023-05-05T13:05:40.033Z,22.3
2023-05-05T13:06:40.040Z,22.1
2023-05-05T13:07:40.036Z,22
2023-05-05T13:08:40.039Z,21.9
2023-05-05T13:09:40.048Z,21.8
2023-05-05T13:10:40.049Z,21.6
2023-05-05T13:11:40.035Z,21.5
2023-05-05T13:12:40.049Z,21.4
2023-05-05T13:13:40.035Z,21.3
2023-05-05T13:14:42.666Z,21.3
2023-05-05T13:15:45.560Z,21.2
2023-05-05T13:16:40.034Z,21
2023-05-05T13:17:40.070Z,20.8
2023-05-05T13:18:40.032Z,20.7
2023-05-05T13:19:40.041Z,20.6
2023-05-05T13:20:40.043Z,20.5
2023-05-05T13:21:40.042Z,20.3
2023-05-05T13:22:40.063Z,20.2
2023-05-05T13:23:40.035Z,20.1
2023-05-05T13:24:50.406Z,20
2023-05-05T13:25:40.064Z,19.9
2023-05-05T13:26:40.034Z,19.8
2023-05-05T13:27:40.047Z,19.7
2023-05-05T13:28:40.034Z,19.7
2023-05-05T13:29:40.041Z,19.5
2023-05-05T13:30:40.039Z,19.4
2023-05-05T13:31:40.280Z,19.3
2023-05-05T13:32:40.068Z,19.2
2023-05-05T13:33:40.038Z,19.1
2023-05-05T13:34:40.059Z,19